• Join FlightAware (Why Join?)
  • Login
  • US Flag 
06:19PM EDT


 

Airport Tracker/Info


-or-


 

Live Flight TrackerFlight Track Log ✈ LJY630 ✈ 26-Dec-2013 ✈ KILG - KMGW

Flight Track Log - Related Links

Times and Time Zones

All times are in EST time to prevent confusion due to time zone crossing. See the LJY630 flight status page for this flight to view local times or setup timezone preferences in your user account.

Time Position Orientation Groundspeed Altitude Reporting Facility
EST Latitude Longitude Course Direction KTS MPH feet Rate Location/Type
09:01AM 39.7000 -75.6000 322° Northwest 175 201 1,000  Level Philadelphia TRACON
09:02AM 39.7500 -75.6500 335° Northwest 225 259 3,600 2,580 Climbing Philadelphia TRACON
09:03AM 39.7689 -75.6919 300° West 224 258 5,700 3,180 Climbing New York Center
09:04AM 39.7908 -75.7692 290° West 229 264 9,000 2,160 Climbing New York Center
09:05AM 39.8142 -75.8544 290° West 244 281 10,100 900 Climbing New York Center
09:06AM 39.8381 -75.9319 292° West 254 292 10,900 1,860 Climbing New York Center
09:07AM 39.8636 -76.0150 292° West 254 292 13,900 3,600 Climbing New York Center
09:08AM 39.8883 -76.1117 288° West 254 292 18,100 3,840 Climbing New York Center
09:09AM 39.9092 -76.2050 286° West 261 300 21,600 2,820 Climbing New York Center
09:10AM 39.9131 -76.3003 273° West 261 300 23,800 1,200 Climbing New York Center
09:11AM 39.9164 -76.4061 272° West 280 322 24,000 60 Climbing New York Center
09:12AM 39.9211 -76.5256 273° West 309 356 24,000  Level New York Center
09:13AM 39.9278 -76.6425 274° West 327 376 24,000  Level New York Center
09:14AM 39.9303 -76.7592 272° West 332 382 24,000  Level New York Center
09:15AM 39.9367 -76.8761 274° West 332 382 24,000  Level New York Center
09:16AM 39.9389 -76.9928 271° West 332 382 24,000  Level New York Center
09:17AM 39.9431 -77.1097 273° West 332 382 24,000  Level New York Center
09:19AM 39.9533 -77.3692 273° West 325 374 24,000  Level Cleveland Center
09:20AM 39.9569 -77.4856 272° West 324 373 24,000  Level Cleveland Center
09:21AM 39.9608 -77.6014 273° West 322 371 24,000  Level Cleveland Center
09:22AM 39.9642 -77.7175 272° West 321 369 24,000  Level Cleveland Center
09:23AM 39.9678 -77.8325 272° West 319 367 24,000  Level Cleveland Center
09:24AM 39.9694 -77.9472 271° West 318 366 24,000  Level Cleveland Center
09:25AM 39.9503 -78.0825 260° West 318 366 24,000  Level Cleveland Center
09:26AM 39.9333 -78.1936 259° West 315 362 24,000 -840 Level Cleveland Center
09:27AM 39.9153 -78.3050 258° West 306 352 22,400 -1,620 Descending Cleveland Center
09:29AM 39.8989 -78.4100 259° West 299 344 20,800 -1,620 Descending Cleveland Center
09:30AM 39.8814 -78.5208 258° West 309 356 19,100 -1,740 Descending Cleveland Center
09:31AM 39.8633 -78.6275 258° West 306 352 17,300 -1,920 Descending Cleveland Center
09:31AM 39.8547 -78.6786 258° West 296 341 16,300 -2,280 Descending Cleveland Center
09:31AM 39.8503 -78.7106 260° West 287 330 15,600 -2,100 Descending Cleveland Center
09:32AM 39.8461 -78.7375 259° West 287 330 15,100 -1,980 Descending Cleveland Center
09:32AM 39.8339 -78.8089 257° West 282 325 13,600 -1,800 Descending Cleveland Center
09:33AM 39.8306 -78.8300 258° West 290 334 13,300 -1,920 Descending Cleveland Center
09:33AM 39.8144 -78.9178 257° West 305 351 11,700 -1,980 Descending Cleveland Center
09:34AM 39.8136 -78.9358 267° West 299 344 11,300 -1,680 Descending Cleveland Center
09:34AM 39.7981 -79.0161 256° West 225 259 9,900 -1,500 Descending Cleveland Center
09:35AM 39.7969 -79.0297 264° West 245 282 9,800 -1,800 Descending Cleveland Center
09:35AM 39.7853 -79.0931 257° West 202 232 8,100 -1,920 Descending Cleveland Center
09:36AM 39.7847 -79.1036 266° West 216 249 7,900 -1,740 Descending Cleveland Center
09:36AM 39.7728 -79.1675 256° West 215 247 6,400 -1,800 Descending Cleveland Center
09:37AM 39.7731 -79.1792 272° West 215 247 6,100 -1,380 Descending Cleveland Center
09:37AM 39.7597 -79.2500 256° West 215 247 5,000 -1,080 Descending Cleveland Center
09:38AM 39.7586 -79.2550 254° West 217 250 5,000  Level Cleveland Center
09:39AM 39.7469 -79.3297 259° West 214 246 5,000 -60 Level Cleveland Center
09:40AM 39.7325 -79.4114 257° West 200 230 4,900 -300 Descending Cleveland Center
09:41AM 39.7200 -79.4783 256° West 195 224 4,500 -240 Descending Cleveland Center
09:42AM 39.7317 -79.5442 283° West 194 223 4,500  Level Cleveland Center
09:43AM 39.7467 -79.6169 285° West 200 230 4,500  Level Cleveland Center
09:44AM 39.7603 -79.6875 284° West 203 234 4,500  Level Cleveland Center
09:45AM 39.7719 -79.7583 282° West 201 231 4,500  Level Cleveland Center
09:46AM 39.7900 -79.8183 291° West 190 219 4,500 -180 Level Cleveland Center
09:47AM 39.8133 -79.8714 300° West 171 197 4,200 -780 Descending Cleveland Center
09:48AM 39.7989 -79.9403 255° West 188 216 3,000 -600 Descending Cleveland Center
09:49AM 39.7481 -79.9367 177° South 183 211 3,000 -300 Level Cleveland Center
09:50AM 39.6986 -79.9269 171° South 182 209 2,400 -720 Descending Cleveland Center
09:51AM 39.6647 -79.9200 171° South 147 169 1,600 -780 Descending Cleveland Center
09:53AM 39.6436 -79.9175 175° South  Level Estimated
10:00AM 39.6436 -79.9175 175° South  Level Estimated
10:01AM 39.6436 -79.9175 175° South  Level Estimated
10:02AM 39.6436 -79.9175 175° South  Level Estimated
10:03AM 39.6436 -79.9175 175° South  Level Estimated
10:04AM 39.6436 -79.9175 175° South  Level Estimated
10:05AM 39.6436 -79.9175 175° South  Level Estimated
10:06AM 39.6436 -79.9175 175° South  Level Estimated
10:07AM 39.6436 -79.9175 175° South  Level Estimated